createdAt,value
2022-10-04T00:02:03.987Z,73.46
2022-10-04T00:04:42.731Z,72.42
2022-10-04T00:07:13.526Z,73.62
2022-10-04T00:09:55.634Z,73.10
2022-10-04T00:12:39.217Z,74.10
2022-10-04T00:15:31.183Z,74.57
2022-10-04T00:18:07.464Z,73.79
2022-10-04T00:21:05.495Z,73.69
2022-10-04T00:23:35.872Z,73.65
2022-10-04T00:26:06.086Z,74.64
2022-10-04T00:28:46.563Z,74.02
2022-10-04T00:31:19.949Z,74.21
2022-10-04T00:33:50.306Z,74.04
2022-10-04T00:36:24.058Z,73.86
2022-10-04T00:39:06.649Z,74.54
2022-10-04T00:41:58.237Z,72.85
2022-10-04T00:44:28.402Z,73.00
2022-10-04T00:46:57.761Z,73.55
2022-10-04T00:49:30.077Z,74.20
2022-10-04T00:52:28.758Z,74.94
2022-10-04T00:54:58.816Z,74.37
2022-10-04T00:57:39.643Z,74.05
2022-10-04T01:00:19.249Z,74.03
2022-10-04T01:02:53.457Z,74.52
2022-10-04T01:05:26.504Z,74.67
2022-10-04T01:08:05.828Z,74.12
2022-10-04T01:10:39.529Z,76.14
2022-10-04T01:13:14.640Z,76.25
2022-10-04T01:15:53.214Z,75.77
2022-10-04T01:18:20.863Z,77.24
2022-10-04T01:21:05.927Z,75.08
2022-10-04T01:23:41.850Z,74.96
2022-10-04T01:26:32.214Z,78.97
2022-10-04T01:29:20.284Z,77.77
2022-10-04T01:31:55.542Z,78.21
2022-10-04T01:34:30.535Z,77.84
2022-10-04T01:36:59.925Z,77.41
2022-10-04T01:39:28.961Z,77.16
2022-10-04T01:42:10.690Z,77.30
2022-10-04T01:44:48.790Z,78.45
2022-10-04T01:47:21.479Z,77.99
2022-10-04T01:49:52.717Z,77.40
2022-10-04T01:52:23.854Z,77.62
2022-10-04T01:55:01.141Z,77.34
2022-10-04T01:57:41.939Z,77.23
2022-10-04T02:00:12.329Z,75.71
2022-10-04T02:02:52.440Z,78.93
2022-10-04T02:05:31.465Z,76.80
2022-10-04T02:08:04.602Z,74.02
2022-10-04T02:10:34.089Z,77.35
2022-10-04T02:13:02.105Z,76.32
2022-10-04T02:15:30.343Z,76.37
2022-10-04T02:17:58.438Z,76.05
2022-10-04T02:20:27.267Z,76.17
2022-10-04T02:23:03.002Z,75.05
2022-10-04T02:25:31.036Z,78.37
2022-10-04T02:27:58.522Z,81.41
2022-10-04T02:30:25.971Z,82.45
2022-10-04T02:33:01.403Z,80.16
2022-10-04T02:35:59.473Z,83.21
2022-10-04T02:38:34.321Z,84.08
2022-10-04T02:41:07.062Z,84.52
2022-10-04T02:43:59.052Z,86.12
2022-10-04T02:46:46.926Z,84.93
2022-10-04T02:49:32.031Z,86.59
2022-10-04T02:52:03.993Z,87.73
2022-10-04T02:54:35.811Z,88.16
2022-10-04T02:57:03.420Z,87.31
2022-10-04T02:59:34.735Z,88.06
2022-10-04T03:02:04.838Z,88.01
2022-10-04T03:04:34.189Z,84.94
2022-10-04T03:07:02.973Z,86.56
2022-10-04T03:09:31.079Z,86.29
2022-10-04T03:11:59.157Z,85.45
2022-10-04T03:14:28.251Z,81.20
2022-10-04T03:17:01.230Z,86.93
2022-10-04T03:19:30.420Z,87.39
2022-10-04T03:22:02.132Z,85.85
2022-10-04T03:24:47.016Z,84.63
2022-10-04T03:27:20.082Z,86.47
2022-10-04T03:29:47.750Z,86.34
2022-10-04T03:32:17.189Z,85.61
2022-10-04T03:35:00.296Z,84.18
2022-10-04T03:37:31.125Z,87.34
2022-10-04T03:39:59.450Z,88.00
2022-10-04T03:42:29.872Z,88.23
2022-10-04T03:45:02.428Z,85.40
2022-10-04T03:47:32.996Z,88.96
2022-10-04T03:50:24.820Z,89.98
2022-10-04T03:52:57.412Z,87.56
2022-10-04T03:55:38.937Z,86.80
2022-10-04T04:01:39.526Z,89.72
2022-10-04T04:04:15.947Z,87.78
2022-10-04T04:06:50.545Z,88.62
2022-10-04T04:09:48.091Z,90.30
2022-10-04T04:12:22.529Z,86.77
2022-10-04T04:14:51.999Z,89.57
2022-10-04T04:17:41.189Z,90.65
2022-10-04T04:20:28.157Z,88.44
2022-10-04T04:22:59.917Z,87.83
2022-10-04T04:25:29.372Z,87.45
2022-10-04T04:28:03.206Z,88.23
2022-10-04T04:30:32.758Z,88.07
2022-10-04T04:33:06.014Z,88.08
2022-10-04T04:35:36.333Z,90.62
2022-10-04T04:38:04.981Z,89.19
2022-10-04T04:40:32.874Z,86.48
2022-10-04T04:43:01.623Z,90.03
2022-10-04T04:45:30.775Z,88.25
2022-10-04T04:47:58.819Z,86.81
2022-10-04T04:50:31.669Z,88.13
2022-10-04T04:53:23.655Z,84.87
2022-10-04T04:56:03.712Z,87.49
2022-10-04T04:58:42.494Z,89.69
2022-10-04T05:01:29.471Z,85.38
2022-10-04T05:04:09.291Z,90.12
2022-10-04T05:06:41.722Z,88.64
2022-10-04T05:09:28.458Z,90.36
2022-10-04T05:12:03.040Z,90.28
2022-10-04T05:14:31.427Z,90.44
2022-10-04T05:16:59.253Z,90.22
2022-10-04T05:19:31.217Z,91.56
2022-10-04T05:22:01.445Z,91.35
2022-10-04T05:24:34.112Z,90.75
2022-10-04T05:27:03.413Z,91.44
2022-10-04T05:29:34.284Z,91.99
2022-10-04T05:32:16.253Z,92.09
2022-10-04T05:34:47.048Z,90.40
2022-10-04T05:37:42.779Z,85.85
2022-10-04T05:40:13.242Z,86.57
2022-10-04T05:42:45.500Z,83.54
2022-10-04T05:45:25.212Z,80.69
2022-10-04T05:47:55.008Z,79.29
2022-10-04T05:50:40.892Z,85.99
2022-10-04T05:53:35.623Z,90.22
2022-10-04T05:56:30.570Z,92.80
2022-10-04T05:59:13.197Z,91.89
2022-10-04T06:01:47.103Z,92.96
2022-10-04T06:04:39.718Z,87.91
2022-10-04T06:07:36.426Z,89.51
2022-10-04T06:10:44.340Z,86.24
2022-10-04T06:13:22.812Z,90.38
2022-10-04T06:15:57.658Z,89.21
2022-10-04T06:18:28.237Z,91.57
2022-10-04T06:21:33.400Z,90.05
2022-10-04T06:24:10.460Z,89.83
2022-10-04T06:26:48.868Z,88.36
2022-10-04T06:29:20.716Z,86.84
2022-10-04T06:31:59.843Z,88.45
2022-10-04T06:34:52.789Z,89.63
2022-10-04T06:37:29.648Z,86.89
2022-10-04T06:40:52.126Z,83.53
2022-10-04T06:43:30.572Z,87.38
2022-10-04T06:46:09.119Z,82.73
2022-10-04T06:48:49.045Z,79.30
2022-10-04T06:51:25.743Z,78.12
2022-10-04T06:54:15.488Z,82.75
2022-10-04T06:57:22.304Z,84.29
2022-10-04T07:00:00.389Z,80.85
2022-10-04T07:02:32.123Z,79.20
2022-10-04T07:05:09.363Z,77.49
2022-10-04T07:07:47.606Z,84.63
2022-10-04T07:10:31.039Z,82.83
2022-10-04T07:13:05.381Z,86.51
2022-10-04T07:16:04.061Z,85.26
2022-10-04T07:18:58.136Z,84.56
2022-10-04T07:21:28.270Z,80.03
2022-10-04T07:23:58.596Z,80.78
2022-10-04T07:26:34.350Z,83.60
2022-10-04T07:29:20.541Z,84.75
2022-10-04T07:31:52.190Z,84.96
2022-10-04T07:34:26.630Z,82.96
2022-10-04T07:36:55.461Z,80.48
2022-10-04T07:39:30.858Z,78.23
2022-10-04T07:42:21.850Z,79.10
2022-10-04T07:45:18.900Z,79.26
2022-10-04T07:47:47.267Z,78.67
2022-10-04T07:50:34.409Z,76.79
2022-10-04T07:53:16.480Z,75.04
2022-10-04T07:55:56.607Z,76.81
2022-10-04T07:58:45.371Z,75.20
2022-10-04T08:01:34.639Z,78.62
2022-10-04T08:04:20.829Z,77.55
2022-10-04T08:07:00.756Z,74.21
2022-10-04T08:09:42.643Z,73.76
2022-10-04T08:12:34.947Z,74.85
2022-10-04T08:15:14.923Z,71.39
2022-10-04T08:18:03.608Z,70.37
2022-10-04T08:20:45.587Z,70.42
2022-10-04T08:23:41.169Z,67.56
2022-10-04T08:26:38.333Z,68.65
2022-10-04T08:29:42.606Z,69.94
2022-10-04T08:32:23.380Z,70.76
2022-10-04T08:35:16.562Z,69.72
2022-10-04T08:38:03.211Z,67.33
2022-10-04T08:40:58.547Z,66.84
2022-10-04T08:43:57.715Z,66.89
2022-10-04T08:46:41.381Z,66.81
2022-10-04T08:49:47.069Z,65.79
2022-10-04T08:52:33.620Z,64.33
2022-10-04T08:55:15.897Z,64.81
2022-10-04T08:58:15.997Z,65.52
2022-10-04T09:01:13.509Z,63.17
2022-10-04T09:04:06.604Z,61.35
2022-10-04T09:06:45.941Z,60.18
2022-10-04T09:09:37.173Z,61.26
2022-10-04T09:12:23.118Z,61.02
2022-10-04T09:15:03.961Z,61.20
2022-10-04T09:17:54.611Z,61.91
2022-10-04T09:20:43.778Z,63.00
2022-10-04T09:23:38.225Z,61.68
2022-10-04T09:26:23.091Z,63.29
2022-10-04T09:29:14.208Z,61.33
2022-10-04T09:32:23.401Z,61.77
2022-10-04T09:35:15.482Z,63.00
2022-10-04T09:37:48.956Z,61.22
2022-10-04T09:40:51.565Z,63.73
2022-10-04T09:46:44.658Z,62.64
2022-10-04T09:49:50.581Z,62.51
2022-10-04T09:52:21.224Z,62.97
2022-10-04T09:55:06.735Z,60.87
2022-10-04T09:57:57.429Z,65.00
2022-10-04T10:00:36.922Z,63.54
2022-10-04T10:03:15.988Z,65.69
2022-10-04T10:06:09.160Z,65.43
2022-10-04T10:09:11.447Z,63.61
2022-10-04T10:12:03.554Z,63.97
2022-10-04T10:15:06.246Z,63.76
2022-10-04T10:17:46.086Z,64.70
2022-10-04T10:20:38.269Z,62.61
2022-10-04T10:23:27.491Z,61.69
2022-10-04T10:26:04.054Z,60.90
2022-10-04T10:28:49.695Z,59.62
2022-10-04T10:31:30.778Z,60.67
2022-10-04T10:34:26.732Z,61.25
2022-10-04T10:37:04.552Z,61.78
2022-10-04T10:39:54.065Z,62.38
2022-10-04T10:42:27.747Z,62.37
2022-10-04T10:45:29.337Z,63.59
2022-10-04T10:48:14.055Z,61.94
2022-10-04T10:51:02.735Z,60.07
2022-10-04T10:53:46.272Z,60.37
2022-10-04T10:56:32.665Z,59.54
2022-10-04T10:59:25.609Z,60.87
2022-10-04T11:02:42.243Z,62.14
2022-10-04T11:05:23.663Z,60.14
2022-10-04T11:08:14.245Z,60.99
2022-10-04T11:11:03.927Z,62.58
2022-10-04T11:13:50.076Z,61.19
2022-10-04T11:16:47.651Z,55.64
2022-10-04T11:19:47.284Z,59.75
2022-10-04T11:22:38.166Z,59.89
2022-10-04T11:25:25.244Z,62.40
2022-10-04T11:28:08.280Z,60.89
2022-10-04T11:30:58.912Z,60.86
2022-10-04T11:33:29.364Z,63.03
2022-10-04T11:36:11.520Z,62.94
2022-10-04T11:39:03.312Z,60.72
2022-10-04T11:41:41.554Z,59.25
2022-10-04T11:44:55.628Z,60.65
2022-10-04T11:47:47.415Z,58.94
2022-10-04T11:50:50.078Z,57.83
2022-10-04T11:53:39.300Z,58.24
2022-10-04T11:56:26.491Z,58.90
2022-10-04T11:59:15.459Z,59.25
2022-10-04T12:02:03.391Z,60.56
2022-10-04T12:04:34.008Z,59.60
2022-10-04T12:07:08.464Z,59.42
2022-10-04T12:09:39.050Z,59.26
2022-10-04T12:12:38.819Z,57.81
2022-10-04T12:15:38.597Z,57.92
2022-10-04T12:18:28.543Z,57.60
2022-10-04T12:21:23.990Z,59.45
2022-10-04T12:24:13.163Z,64.18
2022-10-04T12:27:24.430Z,65.46
2022-10-04T12:30:15.067Z,62.95
2022-10-04T12:33:03.575Z,62.96
2022-10-04T12:35:53.991Z,65.26
2022-10-04T12:39:00.299Z,65.02
2022-10-04T12:41:49.042Z,67.83
2022-10-04T12:44:27.235Z,68.44
2022-10-04T12:47:32.152Z,69.59
2022-10-04T12:50:11.413Z,71.79
2022-10-04T12:52:50.052Z,67.85
2022-10-04T12:55:49.070Z,67.25
2022-10-04T12:58:33.082Z,67.64
2022-10-04T13:01:26.180Z,66.96
2022-10-04T13:04:19.379Z,63.64
2022-10-04T13:06:50.593Z,66.16
2022-10-04T13:10:05.365Z,63.35
2022-10-04T13:13:05.132Z,62.02
2022-10-04T13:19:30.468Z,60.29
2022-10-04T13:22:10.164Z,63.08
2022-10-04T13:24:56.109Z,59.18
2022-10-04T13:28:02.411Z,58.07
2022-10-04T13:30:38.073Z,58.64
2022-10-04T13:33:26.322Z,56.48
2022-10-04T13:36:11.505Z,58.75
2022-10-04T13:38:57.921Z,59.18
2022-10-04T13:41:37.326Z,59.33
2022-10-04T13:44:26.589Z,58.00
2022-10-04T13:47:06.698Z,58.75
2022-10-04T13:49:49.278Z,57.83
2022-10-04T13:53:06.719Z,59.24
2022-10-04T13:56:11.734Z,61.20
2022-10-04T13:58:39.464Z,57.84
2022-10-04T14:01:20.765Z,58.89
2022-10-04T14:04:19.422Z,57.78
2022-10-04T14:07:05.390Z,58.82
2022-10-04T14:09:52.129Z,60.63
2022-10-04T14:12:38.624Z,59.55
2022-10-04T14:15:29.649Z,55.22
2022-10-04T14:18:31.256Z,56.08
2022-10-04T14:21:18.131Z,55.08
2022-10-04T15:21:47.266Z,55.41
2022-10-04T15:24:39.581Z,55.47
2022-10-04T15:27:47.306Z,56.20
2022-10-04T15:30:30.716Z,55.37
2022-10-04T15:33:19.630Z,57.38
2022-10-04T15:35:58.792Z,55.82
2022-10-04T15:38:53.741Z,54.47
2022-10-04T15:41:27.806Z,55.97
2022-10-04T15:44:11.861Z,57.01
2022-10-04T15:46:45.476Z,57.21
2022-10-04T15:49:55.611Z,56.75
2022-10-04T15:52:50.750Z,57.85
2022-10-04T15:55:36.274Z,60.39
2022-10-04T15:58:28.937Z,60.26
2022-10-04T16:01:04.434Z,58.69
2022-10-04T16:04:09.924Z,60.62
2022-10-04T16:06:47.996Z,59.17
2022-10-04T16:09:27.345Z,60.03
2022-10-04T16:12:06.284Z,62.11
2022-10-04T16:14:53.578Z,63.43
2022-10-04T16:17:26.813Z,64.13
2022-10-04T16:20:04.613Z,64.17
2022-10-04T16:22:33.430Z,64.19
2022-10-04T16:25:24.199Z,64.52
2022-10-04T16:27:57.574Z,64.51
2022-10-04T16:30:37.176Z,63.98
2022-10-04T16:33:23.239Z,65.48
2022-10-04T16:36:22.097Z,61.82
2022-10-04T16:39:26.749Z,59.67
2022-10-04T16:42:02.671Z,58.63
2022-10-04T16:44:50.102Z,60.48
2022-10-04T16:47:29.727Z,61.67
2022-10-04T16:49:58.764Z,62.47
2022-10-04T16:52:38.754Z,65.65
2022-10-04T16:55:38.407Z,65.57
2022-10-04T16:58:28.144Z,66.77
2022-10-04T17:01:23.540Z,66.59
2022-10-04T17:04:18.893Z,66.34
2022-10-04T17:07:14.382Z,66.19
2022-10-04T17:10:02.807Z,64.54
2022-10-04T17:12:45.553Z,62.88
2022-10-04T17:15:28.532Z,63.13
2022-10-04T17:18:19.389Z,63.28
2022-10-04T17:20:50.167Z,62.44
2022-10-04T17:23:35.834Z,68.80
2022-10-04T17:26:38.348Z,68.55
2022-10-04T17:29:48.260Z,66.36
2022-10-04T17:32:47.136Z,66.75
2022-10-04T17:35:53.008Z,72.15
2022-10-04T17:38:43.691Z,74.88
2022-10-04T17:41:19.271Z,74.03
2022-10-04T17:44:13.375Z,70.37
2022-10-04T17:47:08.632Z,66.33
2022-10-04T17:50:23.960Z,65.16
2022-10-04T17:53:17.954Z,65.39
2022-10-04T17:55:50.491Z,66.51
2022-10-04T17:58:30.620Z,66.61
2022-10-04T18:00:58.241Z,67.78
2022-10-04T18:03:41.637Z,69.54
2022-10-04T18:06:37.065Z,68.37
2022-10-04T18:09:43.417Z,69.10
2022-10-04T18:12:36.935Z,68.85
2022-10-04T18:15:37.806Z,73.03
2022-10-04T18:18:16.068Z,73.88
2022-10-04T18:21:05.249Z,73.63
2022-10-04T18:23:35.799Z,73.28
2022-10-04T18:26:12.058Z,74.87
2022-10-04T18:28:39.728Z,76.72
2022-10-04T18:31:29.699Z,77.00
2022-10-04T18:34:01.896Z,77.26
2022-10-04T18:36:36.428Z,75.92
2022-10-04T18:39:13.387Z,72.62
2022-10-04T18:41:55.036Z,73.15
2022-10-04T18:45:01.858Z,74.14
2022-10-04T18:47:34.622Z,76.18
2022-10-04T18:50:06.903Z,75.10
2022-10-04T18:53:02.366Z,72.55
2022-10-04T18:55:51.946Z,70.00
2022-10-04T18:59:04.575Z,68.38
2022-10-04T19:01:57.511Z,66.55
2022-10-04T19:04:37.776Z,69.50
2022-10-04T19:07:24.273Z,68.32
2022-10-04T19:10:01.679Z,68.41
2022-10-04T19:12:38.618Z,71.55
2022-10-04T19:15:35.372Z,68.10
2022-10-04T19:18:09.295Z,67.82
2022-10-04T19:20:41.402Z,70.55
2022-10-04T19:23:22.034Z,73.64
2022-10-04T19:26:30.584Z,79.00
2022-10-04T19:29:19.606Z,78.64
2022-10-04T19:32:01.903Z,82.67
2022-10-04T19:34:37.997Z,83.46
2022-10-04T19:37:16.175Z,85.24
2022-10-04T19:39:54.650Z,85.84
2022-10-04T19:42:43.242Z,85.41
2022-10-04T19:45:33.911Z,83.97
2022-10-04T19:48:07.617Z,78.88
2022-10-04T19:50:41.632Z,81.56
2022-10-04T19:53:21.221Z,83.84
2022-10-04T19:55:51.501Z,84.32
2022-10-04T19:58:40.666Z,83.54
2022-10-04T20:01:14.731Z,83.80
2022-10-04T20:03:43.868Z,80.17
2022-10-04T20:06:20.277Z,76.47
2022-10-04T20:09:02.575Z,82.21
2022-10-04T20:11:52.001Z,85.24
2022-10-04T20:14:23.373Z,86.52
2022-10-04T20:16:51.349Z,87.38
2022-10-04T20:19:24.857Z,88.08
2022-10-04T20:21:52.594Z,88.21
2022-10-04T20:24:41.830Z,87.58
2022-10-04T20:27:24.732Z,87.53
2022-10-04T20:29:52.041Z,86.34
2022-10-04T20:32:29.887Z,85.81
2022-10-04T20:34:58.053Z,86.87
2022-10-04T20:37:43.856Z,86.77
2022-10-04T20:40:34.594Z,86.23
2022-10-04T20:43:14.235Z,82.50
2022-10-04T20:45:54.365Z,78.72
2022-10-04T20:48:24.044Z,83.12
2022-10-04T20:50:52.353Z,85.79
2022-10-04T20:53:22.745Z,87.71
2022-10-04T20:55:57.220Z,86.71
2022-10-04T20:58:32.876Z,86.40
2022-10-04T21:01:18.307Z,87.29
2022-10-04T21:03:45.826Z,87.16
2022-10-04T21:06:13.415Z,86.54
2022-10-04T21:08:41.156Z,82.57
2022-10-04T21:11:08.449Z,85.51
2022-10-04T21:13:50.336Z,86.05
2022-10-04T21:16:36.398Z,88.05
2022-10-04T21:19:32.329Z,89.35
2022-10-04T21:22:07.734Z,90.15
2022-10-04T21:24:50.414Z,85.25
2022-10-04T21:27:26.948Z,76.90
2022-10-04T21:29:54.895Z,82.21
2022-10-04T21:32:23.131Z,85.95
2022-10-04T21:34:54.584Z,87.25
2022-10-04T21:37:22.481Z,84.93
2022-10-04T21:39:49.823Z,78.37
2022-10-04T21:42:17.512Z,76.48
2022-10-04T21:44:45.280Z,84.08
2022-10-04T21:47:12.649Z,86.72
2022-10-04T21:49:40.094Z,85.88
2022-10-04T21:52:08.072Z,86.70
2022-10-04T21:54:35.570Z,82.64
2022-10-04T21:57:02.952Z,83.69
2022-10-04T21:59:30.599Z,85.94
2022-10-04T22:01:57.997Z,86.26
2022-10-04T22:04:25.694Z,84.60
2022-10-04T22:06:53.026Z,84.97
2022-10-04T22:09:20.656Z,87.23
2022-10-04T22:11:48.582Z,89.03
2022-10-04T22:14:16.054Z,85.89
2022-10-04T22:16:44.032Z,79.38
2022-10-04T22:19:12.002Z,80.55
2022-10-04T22:21:39.376Z,86.21
2022-10-04T22:24:16.507Z,87.48
2022-10-04T22:26:44.425Z,88.95
2022-10-04T22:29:17.382Z,87.66
2022-10-04T22:31:50.980Z,88.12
2022-10-04T22:34:20.943Z,88.69
2022-10-04T22:36:50.130Z,87.18
2022-10-04T22:39:19.040Z,85.04
2022-10-04T22:41:48.206Z,88.14
2022-10-04T22:44:19.750Z,86.89
2022-10-04T22:46:49.983Z,88.76
2022-10-04T22:49:21.084Z,88.75
2022-10-04T22:51:51.571Z,88.46
2022-10-04T22:54:21.391Z,90.11
2022-10-04T22:56:49.713Z,91.19
2022-10-04T22:59:19.693Z,90.68
2022-10-04T23:01:47.857Z,90.38
2022-10-04T23:04:23.558Z,89.93
2022-10-04T23:06:52.019Z,90.32
2022-10-04T23:09:19.958Z,91.04
2022-10-04T23:11:47.532Z,91.87
2022-10-04T23:14:15.433Z,91.95
2022-10-04T23:16:44.671Z,91.12
2022-10-04T23:19:14.757Z,91.79
2022-10-04T23:21:47.331Z,92.20
2022-10-04T23:24:17.322Z,91.62
2022-10-04T23:26:47.363Z,92.16
2022-10-04T23:29:23.728Z,91.69
2022-10-04T23:31:52.721Z,91.57
2022-10-04T23:34:26.855Z,91.57
2022-10-04T23:37:00.853Z,92.44
2022-10-04T23:39:30.479Z,93.46
2022-10-04T23:41:58.535Z,93.20
2022-10-04T23:44:32.062Z,92.27
2022-10-04T23:46:59.796Z,91.16
2022-10-04T23:49:27.172Z,93.07
2022-10-04T23:51:59.175Z,92.85
2022-10-04T23:54:27.602Z,91.69
2022-10-04T23:56:55.076Z,91.90
2022-10-04T23:59:25.396Z,92.10
